Orbital elements of FENGYUN 1C DEB
| Launched | 9 May 1999 |
| Flight ended | – |
| Launch site | Taiyuan Space Center, PRC |
| Owner | People's Republic of China |
| NORAD ID | 30724 |
| Date fetched |
Epoch osculation |
Inc. [°] |
Ecc. | RA asc node [hr] |
Arg Peri. [°] |
Mean anom [°] |
Mean motion [rev/day] |
Abs. mag |
| Date fetched |
Epoch osculation |
Inc. [°] |
Ecc. | RA asc node [hr] |
Arg Peri. [°] |
Mean anom [°] |
Mean motion [rev/day] |
Abs. mag |
| 2026 May 05 17:57 | 2026 May 05 01:19:38 | 99.3148 | 0.00927 | 21.7721 | 202.4074 | 310.0334 | 14.37406 | – |
| 2026 May 04 17:57 | 2026 Apr 30 12:10:07 | 99.3152 | 0.00925 | 21.4438 | 215.7146 | 310.0334 | 14.37406 | – |
| 2026 May 03 17:57 | 2026 Apr 30 12:10:07 | 99.3152 | 0.00925 | 21.4438 | 215.7146 | 310.0334 | 14.37406 | – |
| 2026 May 02 17:57 | 2026 Apr 30 12:10:07 | 99.3152 | 0.00925 | 21.4438 | 215.7146 | 310.0334 | 14.37406 | – |
| 2026 May 01 17:56 | 2026 Apr 30 12:10:07 | 99.3152 | 0.00925 | 21.4438 | 215.7146 | 310.0334 | 14.37406 | – |
| 2026 Apr 30 17:56 | 2026 Apr 30 12:10:07 | 99.3152 | 0.00925 | 21.4438 | 215.7146 | 310.0334 | 14.37406 | – |
| 2026 Apr 29 17:57 | 2026 Apr 24 01:22:12 | 99.3162 | 0.00924 | 20.9783 | 234.6409 | 310.0334 | 14.37406 | – |
| 2026 Apr 28 17:56 | 2026 Apr 24 01:22:12 | 99.3162 | 0.00924 | 20.9783 | 234.6409 | 310.0334 | 14.37406 | – |
| 2026 Apr 27 17:58 | 2026 Apr 24 01:22:12 | 99.3162 | 0.00924 | 20.9783 | 234.6409 | 310.0334 | 14.37406 | – |
| 2026 Apr 26 17:58 | 2026 Apr 24 01:22:12 | 99.3162 | 0.00924 | 20.9783 | 234.6409 | 310.0334 | 14.37406 | – |
| 2026 Apr 25 17:58 | 2026 Apr 24 01:22:12 | 99.3162 | 0.00924 | 20.9783 | 234.6409 | 310.0334 | 14.37406 | – |
| 2026 Apr 24 17:59 | 2026 Apr 24 01:22:12 | 99.3162 | 0.00924 | 20.9783 | 234.6409 | 310.0334 | 14.37406 | – |
| 2026 Apr 23 17:57 | 2026 Apr 19 09:17:30 | 99.3164 | 0.00923 | 20.6413 | 248.3640 | 310.0334 | 14.37406 | – |
| 2026 Apr 22 17:57 | 2026 Apr 19 09:17:30 | 99.3164 | 0.00923 | 20.6413 | 248.3640 | 310.0334 | 14.37406 | – |
| 2026 Apr 21 17:57 | 2026 Apr 19 09:17:30 | 99.3164 | 0.00923 | 20.6413 | 248.3640 | 310.0334 | 14.37406 | – |
| 2026 Apr 20 17:57 | 2026 Apr 19 09:17:30 | 99.3164 | 0.00923 | 20.6413 | 248.3640 | 310.0334 | 14.37406 | – |
| 2026 Apr 19 17:58 | 2026 Apr 19 09:17:30 | 99.3164 | 0.00923 | 20.6413 | 248.3640 | 310.0334 | 14.37406 | – |
| 2026 Apr 18 17:56 | 2026 Apr 12 00:21:37 | 99.3172 | 0.00922 | 20.1091 | 270.0499 | 310.0334 | 14.37406 | – |
| 2026 Apr 16 17:57 | 2026 Apr 12 00:21:37 | 99.3172 | 0.00922 | 20.1091 | 270.0499 | 310.0334 | 14.37406 | – |
| 2026 Apr 14 17:57 | 2026 Apr 12 00:21:37 | 99.3172 | 0.00922 | 20.1091 | 270.0499 | 310.0334 | 14.37406 | – |
| 2026 Apr 13 17:57 | 2026 Apr 12 00:21:37 | 99.3172 | 0.00922 | 20.1091 | 270.0499 | 310.0334 | 14.37406 | – |
| 2026 Apr 12 17:57 | 2026 Apr 06 00:40:23 | 99.3173 | 0.00923 | 19.6769 | 287.6631 | 310.0334 | 14.37406 | – |
| 2026 Apr 11 17:57 | 2026 Apr 06 00:40:23 | 99.3173 | 0.00923 | 19.6769 | 287.6631 | 310.0334 | 14.37406 | – |
| 2026 Apr 10 17:58 | 2026 Apr 06 00:40:23 | 99.3173 | 0.00923 | 19.6769 | 287.6631 | 310.0334 | 14.37406 | – |
| 2026 Apr 09 18:01 | 2026 Apr 06 00:40:23 | 99.3173 | 0.00923 | 19.6769 | 287.6631 | 310.0334 | 14.37406 | – |
| 2026 Apr 08 17:57 | 2026 Apr 06 00:40:23 | 99.3173 | 0.00923 | 19.6769 | 287.6631 | 310.0334 | 14.37406 | – |